Observations for NANTES CHATEAU, France (LFRS)

LFRS 220800Z AUTO 15007KT CAVOK 14/11 Q1022 NOSIG   
LFRS 220730Z AUTO 14005KT CAVOK 13/11 Q1023 NOSIG   
LFRS 220700Z AUTO 15006KT 130V210 CAVOK 12/11 Q1023 NOSIG   
LFRS 220630Z AUTO 15005KT 130V200 CAVOK 11/10 Q1023 NOSIG   
LFRS 220600Z AUTO 14005KT CAVOK 11/10 Q1023 NOSIG   
LFRS 220530Z AUTO 15003KT CAVOK 11/10 Q1023 NOSIG   
LFRS 220500Z AUTO 15004KT CAVOK 11/10 Q1023 NOSIG   
LFRS 220430Z AUTO 15003KT CAVOK 10/09 Q1023 NOSIG   
LFRS 220400Z AUTO 16002KT CAVOK 10/09 Q1023 NOSIG   
LFRS 220330Z AUTO 15002KT CAVOK 10/09 Q1023 NOSIG   
LFRS 220300Z AUTO 15002KT CAVOK 10/09 Q1023 NOSIG   
LFRS 220230Z AUTO 15003KT CAVOK 10/09 Q1023 NOSIG   
LFRS 220200Z AUTO 14003KT CAVOK 09/09 Q1023 NOSIG   
LFRS 220130Z AUTO 15002KT CAVOK 09/08 Q1024 NOSIG   
LFRS 220100Z AUTO 17002KT CAVOK 10/08 Q1024 NOSIG   
LFRS 220030Z AUTO 18004KT CAVOK 10/08 Q1024 NOSIG   
LFRS 220000Z AUTO 18003KT CAVOK 10/08 Q1024 NOSIG   
LFRS 212330Z AUTO 00000KT CAVOK 10/09 Q1024 NOSIG   
LFRS 212300Z AUTO 00000KT CAVOK 10/09 Q1024 NOSIG   
LFRS 212230Z AUTO VRB02KT CAVOK 11/09 Q1024 NOSIG   
LFRS 212200Z AUTO 00000KT CAVOK 11/09 Q1024 NOSIG   
LFRS 212130Z AUTO VRB01KT CAVOK 11/09 Q1024 NOSIG   
LFRS 212100Z AUTO 26003KT CAVOK 11/09 Q1024 NOSIG   
LFRS 212030Z AUTO VRB02KT CAVOK 11/09 Q1024 NOSIG   
LFRS 212000Z AUTO VRB03KT CAVOK 12/08 Q1024 NOSIG   
LFRS 211930Z AUTO 25002KT CAVOK 12/08 Q1023 NOSIG   
LFRS 211900Z AUTO 25004KT CAVOK 13/08 Q1023 NOSIG   
LFRS 211830Z AUTO 25005KT CAVOK 13/08 Q1023 NOSIG   
LFRS 211800Z AUTO 26006KT 220V280 CAVOK 14/08 Q1022 NOSIG   
LFRS 211730Z AUTO 25006KT 220V280 CAVOK 16/09 Q1022 NOSIG   
LFRS 211700Z AUTO 27008KT CAVOK 16/09 Q1022 NOSIG   
LFRS 211630Z AUTO 26008KT CAVOK 17/09 Q1021 NOSIG   
LFRS 211600Z AUTO 26008KT 230V290 CAVOK 17/09 Q1021 NOSIG   
LFRS 211530Z AUTO 27009KT 9999 FEW042 17/08 Q1021 NOSIG 
LFRS 211500Z AUTO 29010KT 260V320 9999 BKN044 BKN230 17/07 Q1021 NOSIG  
LFRS 211430Z AUTO 30009KT 260V340 9999 SCT049 BKN240 18/08 Q1021 NOSIG  
LFRS 211400Z AUTO 30009KT 260V330 9999 FEW045 18/08 Q1020 NOSIG 
LFRS 211330Z AUTO 29009KT 250V330 9999 BKN044 OVC050 17/07 Q1021 NOSIG  
LFRS 211300Z AUTO 32009KT 280V360 9999 BKN043 OVC050 17/08 Q1020 NOSIG  
LFRS 211230Z AUTO 28010KT 9999 SCT044 18/08 Q1020 NOSIG 
LFRS 211200Z AUTO 29012KT 260V320 9999 BKN041 17/08 Q1020 NOSIG 
LFRS 211130Z AUTO 30009KT 260V340 9999 BKN040 BKN046 17/08 Q1019 NOSIG  
LFRS 211100Z AUTO 31009KT 280V340 9999 BKN040 BKN220 16/08 Q1019 NOSIG  
LFRS 211030Z AUTO 29012KT 250V330 9999 FEW041 17/09 Q1019 NOSIG 
LFRS 211000Z AUTO 29009KT 260V330 CAVOK 16/10 Q1019 NOSIG   
LFRS 210930Z AUTO 31009KT 280V360 9999 FEW026 15/10 Q1018 NOSIG 
LFRS 210900Z AUTO 31009KT 290V350 CAVOK 15/11 Q1018 NOSIG   
LFRS 210830Z AUTO 31009KT CAVOK 15/11 Q1017 NOSIG   
LFRS 210800Z AUTO 30009KT 270V330 9999 FEW046 15/12 Q1016 NOSIG 
LFRS 210730Z AUTO 30007KT 9999 SCT044 SCT050 14/12 Q1016 NOSIG